sensor_id;sensor_type;location;lat;lon;timestamp;pressure;altitude;pressure_sealevel;temperature
41593;BMP180;28026;48.562;14.440;2024-02-26T00:01:00;92240.00;;;11.50
41593;BMP180;28026;48.562;14.440;2024-02-26T00:03:30;92234.00;;;11.40
41593;BMP180;28026;48.562;14.440;2024-02-26T00:06:03;92233.00;;;11.40
41593;BMP180;28026;48.562;14.440;2024-02-26T00:08:33;92229.00;;;11.40
41593;BMP180;28026;48.562;14.440;2024-02-26T00:11:04;92229.00;;;11.40
41593;BMP180;28026;48.562;14.440;2024-02-26T00:13:36;92223.00;;;11.30
41593;BMP180;28026;48.562;14.440;2024-02-26T00:16:07;92224.00;;;11.20
41593;BMP180;28026;48.562;14.440;2024-02-26T00:18:38;92227.00;;;11.10
41593;BMP180;28026;48.562;14.440;2024-02-26T00:21:08;92221.00;;;11.10
41593;BMP180;28026;48.562;14.440;2024-02-26T00:23:39;92218.00;;;11.00
41593;BMP180;28026;48.562;14.440;2024-02-26T00:26:10;92218.00;;;11.00
41593;BMP180;28026;48.562;14.440;2024-02-26T00:28:41;92206.00;;;11.00
41593;BMP180;28026;48.562;14.440;2024-02-26T00:31:12;92212.00;;;11.00
41593;BMP180;28026;48.562;14.440;2024-02-26T00:33:43;92214.00;;;11.00
41593;BMP180;28026;48.562;14.440;2024-02-26T00:36:13;92200.00;;;11.00
41593;BMP180;28026;48.562;14.440;2024-02-26T00:38:44;92196.00;;;10.90
41593;BMP180;28026;48.562;14.440;2024-02-26T00:41:20;92206.00;;;10.90
41593;BMP180;28026;48.562;14.440;2024-02-26T00:43:52;92196.00;;;10.90
41593;BMP180;28026;48.562;14.440;2024-02-26T00:46:22;92201.00;;;10.90
41593;BMP180;28026;48.562;14.440;2024-02-26T00:48:53;92196.00;;;10.90
41593;BMP180;28026;48.562;14.440;2024-02-26T00:51:24;92183.00;;;10.90
41593;BMP180;28026;48.562;14.440;2024-02-26T00:53:55;92196.00;;;10.90
41593;BMP180;28026;48.562;14.440;2024-02-26T00:56:26;92191.00;;;10.90
41593;BMP180;28026;48.562;14.440;2024-02-26T00:58:56;92199.00;;;10.90
41593;BMP180;28026;48.562;14.440;2024-02-26T01:01:27;92182.00;;;10.90
41593;BMP180;28026;48.562;14.440;2024-02-26T01:03:58;92185.00;;;10.80
41593;BMP180;28026;48.562;14.440;2024-02-26T01:06:29;92183.00;;;10.80
41593;BMP180;28026;48.562;14.440;2024-02-26T01:09:00;92179.00;;;10.80
41593;BMP180;28026;48.562;14.440;2024-02-26T01:11:30;92177.00;;;10.80
41593;BMP180;28026;48.562;14.440;2024-02-26T01:14:01;92172.00;;;10.80
41593;BMP180;28026;48.562;14.440;2024-02-26T01:16:32;92164.00;;;10.80
41593;BMP180;28026;48.562;14.440;2024-02-26T01:19:03;92171.00;;;10.80
41593;BMP180;28026;48.562;14.440;2024-02-26T01:21:33;92165.00;;;10.80
41593;BMP180;28026;48.562;14.440;2024-02-26T01:24:05;92164.00;;;10.70
41593;BMP180;28026;48.562;14.440;2024-02-26T01:26:36;92165.00;;;10.70
41593;BMP180;28026;48.562;14.440;2024-02-26T01:29:07;92159.00;;;10.70
41593;BMP180;28026;48.562;14.440;2024-02-26T01:31:37;92157.00;;;10.70
41593;BMP180;28026;48.562;14.440;2024-02-26T01:34:08;92153.00;;;10.70
41593;BMP180;28026;48.562;14.440;2024-02-26T01:36:39;92150.00;;;10.60
41593;BMP180;28026;48.562;14.440;2024-02-26T01:39:10;92134.00;;;10.50
41593;BMP180;28026;48.562;14.440;2024-02-26T01:41:43;92143.00;;;10.40
41593;BMP180;28026;48.562;14.440;2024-02-26T01:44:14;92141.00;;;10.30
41593;BMP180;28026;48.562;14.440;2024-02-26T01:46:45;92131.00;;;10.10
41593;BMP180;28026;48.562;14.440;2024-02-26T01:49:15;92137.00;;;10.10
41593;BMP180;28026;48.562;14.440;2024-02-26T01:51:47;92140.00;;;10.10
41593;BMP180;28026;48.562;14.440;2024-02-26T01:54:18;92142.00;;;10.10
41593;BMP180;28026;48.562;14.440;2024-02-26T01:56:49;92139.00;;;10.10
41593;BMP180;28026;48.562;14.440;2024-02-26T01:59:22;92142.00;;;10.10
41593;BMP180;28026;48.562;14.440;2024-02-26T02:01:55;92136.00;;;10.10
41593;BMP180;28026;48.562;14.440;2024-02-26T02:04:29;92137.00;;;10.10
41593;BMP180;28026;48.562;14.440;2024-02-26T02:07:01;92141.00;;;10.10
41593;BMP180;28026;48.562;14.440;2024-02-26T02:09:32;92137.00;;;10.10
41593;BMP180;28026;48.562;14.440;2024-02-26T02:12:04;92131.00;;;10.10
41593;BMP180;28026;48.562;14.440;2024-02-26T02:14:35;92142.00;;;10.00
41593;BMP180;28026;48.562;14.440;2024-02-26T02:17:05;92137.00;;;10.00
41593;BMP180;28026;48.562;14.440;2024-02-26T02:19:36;92145.00;;;9.90
41593;BMP180;28026;48.562;14.440;2024-02-26T02:22:07;92145.00;;;10.00
41593;BMP180;28026;48.562;14.440;2024-02-26T02:24:38;92145.00;;;10.00
41593;BMP180;28026;48.562;14.440;2024-02-26T02:27:09;92138.00;;;10.00
41593;BMP180;28026;48.562;14.440;2024-02-26T02:29:40;92141.00;;;10.00
41593;BMP180;28026;48.562;14.440;2024-02-26T02:32:12;92148.00;;;10.00
41593;BMP180;28026;48.562;14.440;2024-02-26T02:34:44;92138.00;;;10.00
41593;BMP180;28026;48.562;14.440;2024-02-26T02:37:16;92139.00;;;10.00
41593;BMP180;28026;48.562;14.440;2024-02-26T02:39:47;92140.00;;;9.90
41593;BMP180;28026;48.562;14.440;2024-02-26T02:42:18;92140.00;;;9.80
41593;BMP180;28026;48.562;14.440;2024-02-26T02:44:48;92142.00;;;9.80
41593;BMP180;28026;48.562;14.440;2024-02-26T02:47:19;92130.00;;;9.80
41593;BMP180;28026;48.562;14.440;2024-02-26T02:49:50;92135.00;;;9.80
41593;BMP180;28026;48.562;14.440;2024-02-26T02:52:21;92130.00;;;9.80
41593;BMP180;28026;48.562;14.440;2024-02-26T02:54:52;92136.00;;;9.80
41593;BMP180;28026;48.562;14.440;2024-02-26T02:57:22;92132.00;;;9.80
41593;BMP180;28026;48.562;14.440;2024-02-26T02:59:53;92125.00;;;9.80
41593;BMP180;28026;48.562;14.440;2024-02-26T03:02:24;92130.00;;;9.70
41593;BMP180;28026;48.562;14.440;2024-02-26T03:04:55;92141.00;;;9.70
41593;BMP180;28026;48.562;14.440;2024-02-26T03:07:26;92132.00;;;9.70
41593;BMP180;28026;48.562;14.440;2024-02-26T03:09:57;92129.00;;;9.70
41593;BMP180;28026;48.562;14.440;2024-02-26T03:12:27;92119.00;;;9.70
41593;BMP180;28026;48.562;14.440;2024-02-26T03:15:00;92131.00;;;9.70
41593;BMP180;28026;48.562;14.440;2024-02-26T03:17:34;92130.00;;;9.60
41593;BMP180;28026;48.562;14.440;2024-02-26T03:20:06;92125.00;;;9.60
41593;BMP180;28026;48.562;14.440;2024-02-26T03:22:39;92119.00;;;9.60
41593;BMP180;28026;48.562;14.440;2024-02-26T03:25:10;92129.00;;;9.60
41593;BMP180;28026;48.562;14.440;2024-02-26T03:27:41;92131.00;;;9.60
41593;BMP180;28026;48.562;14.440;2024-02-26T03:30:12;92131.00;;;9.50
41593;BMP180;28026;48.562;14.440;2024-02-26T03:32:43;92131.00;;;9.50
41593;BMP180;28026;48.562;14.440;2024-02-26T03:35:14;92126.00;;;9.50
41593;BMP180;28026;48.562;14.440;2024-02-26T03:37:46;92133.00;;;9.50
41593;BMP180;28026;48.562;14.440;2024-02-26T03:40:18;92132.00;;;9.40
41593;BMP180;28026;48.562;14.440;2024-02-26T03:42:50;92120.00;;;9.30
41593;BMP180;28026;48.562;14.440;2024-02-26T03:45:23;92119.00;;;9.20
41593;BMP180;28026;48.562;14.440;2024-02-26T03:47:54;92106.00;;;9.10
41593;BMP180;28026;48.562;14.440;2024-02-26T03:50:25;92120.00;;;9.10
41593;BMP180;28026;48.562;14.440;2024-02-26T03:52:55;92119.00;;;9.10
41593;BMP180;28026;48.562;14.440;2024-02-26T03:55:28;92110.00;;;9.10
41593;BMP180;28026;48.562;14.440;2024-02-26T03:57:59;92107.00;;;9.10
41593;BMP180;28026;48.562;14.440;2024-02-26T04:00:30;92104.00;;;9.10
41593;BMP180;28026;48.562;14.440;2024-02-26T04:03:00;92105.00;;;9.10
41593;BMP180;28026;48.562;14.440;2024-02-26T04:05:31;92104.00;;;9.10
41593;BMP180;28026;48.562;14.440;2024-02-26T04:08:02;92085.00;;;9.10
41593;BMP180;28026;48.562;14.440;2024-02-26T04:10:34;92105.00;;;9.10
41593;BMP180;28026;48.562;14.440;2024-02-26T04:13:07;92094.00;;;9.00
41593;BMP180;28026;48.562;14.440;2024-02-26T04:15:38;92104.00;;;9.10
41593;BMP180;28026;48.562;14.440;2024-02-26T04:18:09;92105.00;;;9.00
41593;BMP180;28026;48.562;14.440;2024-02-26T04:20:40;92105.00;;;9.10
41593;BMP180;28026;48.562;14.440;2024-02-26T04:23:12;92097.00;;;9.00
41593;BMP180;28026;48.562;14.440;2024-02-26T04:25:43;92108.00;;;9.00
41593;BMP180;28026;48.562;14.440;2024-02-26T04:28:14;92096.00;;;8.90
41593;BMP180;28026;48.562;14.440;2024-02-26T04:30:45;92091.00;;;8.90
41593;BMP180;28026;48.562;14.440;2024-02-26T04:33:15;92087.00;;;8.90
41593;BMP180;28026;48.562;14.440;2024-02-26T04:35:47;92109.00;;;8.90
41593;BMP180;28026;48.562;14.440;2024-02-26T04:38:18;92115.00;;;8.90
41593;BMP180;28026;48.562;14.440;2024-02-26T04:40:49;92111.00;;;8.80
41593;BMP180;28026;48.562;14.440;2024-02-26T04:43:19;92112.00;;;8.80
41593;BMP180;28026;48.562;14.440;2024-02-26T04:45:50;92119.00;;;8.80
41593;BMP180;28026;48.562;14.440;2024-02-26T04:48:21;92110.00;;;8.80
41593;BMP180;28026;48.562;14.440;2024-02-26T04:50:53;92107.00;;;8.80
41593;BMP180;28026;48.562;14.440;2024-02-26T04:53:24;92094.00;;;8.80
41593;BMP180;28026;48.562;14.440;2024-02-26T04:55:55;92112.00;;;8.70
41593;BMP180;28026;48.562;14.440;2024-02-26T04:58:26;92104.00;;;8.70
41593;BMP180;28026;48.562;14.440;2024-02-26T05:00:57;92111.00;;;8.70
41593;BMP180;28026;48.562;14.440;2024-02-26T05:03:28;92107.00;;;8.70
41593;BMP180;28026;48.562;14.440;2024-02-26T05:05:58;92103.00;;;8.70
41593;BMP180;28026;48.562;14.440;2024-02-26T05:08:31;92105.00;;;8.60
41593;BMP180;28026;48.562;14.440;2024-02-26T05:11:04;92115.00;;;8.50
41593;BMP180;28026;48.562;14.440;2024-02-26T05:13:36;92106.00;;;8.50
41593;BMP180;28026;48.562;14.440;2024-02-26T05:16:06;92113.00;;;8.40
41593;BMP180;28026;48.562;14.440;2024-02-26T05:18:37;92103.00;;;8.40
41593;BMP180;28026;48.562;14.440;2024-02-26T05:21:08;92107.00;;;8.40
41593;BMP180;28026;48.562;14.440;2024-02-26T05:23:39;92109.00;;;8.40
41593;BMP180;28026;48.562;14.440;2024-02-26T05:26:10;92114.00;;;8.40
41593;BMP180;28026;48.562;14.440;2024-02-26T05:28:41;92119.00;;;8.40
41593;BMP180;28026;48.562;14.440;2024-02-26T05:31:13;92126.00;;;8.40
41593;BMP180;28026;48.562;14.440;2024-02-26T05:33:44;92130.00;;;8.40
41593;BMP180;28026;48.562;14.440;2024-02-26T05:36:20;92127.00;;;8.40
41593;BMP180;28026;48.562;14.440;2024-02-26T05:38:52;92117.00;;;8.40
41593;BMP180;28026;48.562;14.440;2024-02-26T05:41:23;92117.00;;;8.40
41593;BMP180;28026;48.562;14.440;2024-02-26T05:43:56;92118.00;;;8.40
41593;BMP180;28026;48.562;14.440;2024-02-26T05:46:27;92130.00;;;8.40
41593;BMP180;28026;48.562;14.440;2024-02-26T05:48:57;92119.00;;;8.40
41593;BMP180;28026;48.562;14.440;2024-02-26T05:51:28;92132.00;;;8.40
41593;BMP180;28026;48.562;14.440;2024-02-26T05:53:59;92130.00;;;8.40
41593;BMP180;28026;48.562;14.440;2024-02-26T05:56:30;92132.00;;;8.40
41593;BMP180;28026;48.562;14.440;2024-02-26T05:59:01;92140.00;;;8.40
41593;BMP180;28026;48.562;14.440;2024-02-26T06:01:32;92131.00;;;8.40
41593;BMP180;28026;48.562;14.440;2024-02-26T06:04:03;92126.00;;;8.40
41593;BMP180;28026;48.562;14.440;2024-02-26T06:06:34;92122.00;;;8.40
41593;BMP180;28026;48.562;14.440;2024-02-26T06:09:05;92131.00;;;8.40
41593;BMP180;28026;48.562;14.440;2024-02-26T06:11:35;92131.00;;;8.40
41593;BMP180;28026;48.562;14.440;2024-02-26T06:14:06;92137.00;;;8.40
41593;BMP180;28026;48.562;14.440;2024-02-26T06:16:37;92134.00;;;8.30
41593;BMP180;28026;48.562;14.440;2024-02-26T06:19:08;92130.00;;;8.20
41593;BMP180;28026;48.562;14.440;2024-02-26T06:21:39;92137.00;;;8.20
41593;BMP180;28026;48.562;14.440;2024-02-26T06:24:10;92135.00;;;8.30
41593;BMP180;28026;48.562;14.440;2024-02-26T06:26:40;92137.00;;;8.30
41593;BMP180;28026;48.562;14.440;2024-02-26T06:29:11;92142.00;;;8.30
41593;BMP180;28026;48.562;14.440;2024-02-26T06:31:42;92143.00;;;8.20
41593;BMP180;28026;48.562;14.440;2024-02-26T06:34:13;92148.00;;;8.20
41593;BMP180;28026;48.562;14.440;2024-02-26T06:36:44;92137.00;;;8.20
41593;BMP180;28026;48.562;14.440;2024-02-26T06:39:15;92144.00;;;8.20
41593;BMP180;28026;48.562;14.440;2024-02-26T06:41:46;92149.00;;;8.20
41593;BMP180;28026;48.562;14.440;2024-02-26T06:44:17;92150.00;;;8.30
41593;BMP180;28026;48.562;14.440;2024-02-26T06:46:48;92146.00;;;8.40
41593;BMP180;28026;48.562;14.440;2024-02-26T06:49:18;92165.00;;;8.40
41593;BMP180;28026;48.562;14.440;2024-02-26T06:51:49;92162.00;;;8.50
41593;BMP180;28026;48.562;14.440;2024-02-26T06:54:20;92161.00;;;8.60
41593;BMP180;28026;48.562;14.440;2024-02-26T06:56:51;92167.00;;;8.80
41593;BMP180;28026;48.562;14.440;2024-02-26T06:59:22;92177.00;;;8.90
41593;BMP180;28026;48.562;14.440;2024-02-26T07:01:54;92169.00;;;9.10
41593;BMP180;28026;48.562;14.440;2024-02-26T07:04:25;92165.00;;;9.30
41593;BMP180;28026;48.562;14.440;2024-02-26T07:06:56;92173.00;;;9.50
41593;BMP180;28026;48.562;14.440;2024-02-26T07:09:27;92181.00;;;9.60
41593;BMP180;28026;48.562;14.440;2024-02-26T07:11:57;92180.00;;;9.60
41593;BMP180;28026;48.562;14.440;2024-02-26T07:14:28;92172.00;;;9.80
41593;BMP180;28026;48.562;14.440;2024-02-26T07:16:59;92169.00;;;9.90
41593;BMP180;28026;48.562;14.440;2024-02-26T07:19:30;92175.00;;;10.00
41593;BMP180;28026;48.562;14.440;2024-02-26T07:22:01;92178.00;;;10.20
41593;BMP180;28026;48.562;14.440;2024-02-26T07:24:32;92183.00;;;10.30
41593;BMP180;28026;48.562;14.440;2024-02-26T07:27:03;92175.00;;;10.40
41593;BMP180;28026;48.562;14.440;2024-02-26T07:29:34;92173.00;;;10.50
41593;BMP180;28026;48.562;14.440;2024-02-26T07:32:05;92185.00;;;10.70
41593;BMP180;28026;48.562;14.440;2024-02-26T07:34:36;92178.00;;;10.80
41593;BMP180;28026;48.562;14.440;2024-02-26T07:37:10;92175.00;;;11.00
41593;BMP180;28026;48.562;14.440;2024-02-26T07:39:43;92181.00;;;11.20
41593;BMP180;28026;48.562;14.440;2024-02-26T07:42:14;92179.00;;;11.40
41593;BMP180;28026;48.562;14.440;2024-02-26T07:44:44;92187.00;;;11.50
41593;BMP180;28026;48.562;14.440;2024-02-26T07:47:15;92176.00;;;11.50
41593;BMP180;28026;48.562;14.440;2024-02-26T07:49:46;92186.00;;;11.60
41593;BMP180;28026;48.562;14.440;2024-02-26T07:52:17;92191.00;;;11.70
41593;BMP180;28026;48.562;14.440;2024-02-26T07:54:48;92187.00;;;11.70
41593;BMP180;28026;48.562;14.440;2024-02-26T07:57:18;92192.00;;;11.70
41593;BMP180;28026;48.562;14.440;2024-02-26T07:59:51;92194.00;;;11.80
41593;BMP180;28026;48.562;14.440;2024-02-26T08:02:22;92196.00;;;11.90
41593;BMP180;28026;48.562;14.440;2024-02-26T08:04:53;92202.00;;;12.10
41593;BMP180;28026;48.562;14.440;2024-02-26T08:07:24;92205.00;;;12.30
41593;BMP180;28026;48.562;14.440;2024-02-26T08:09:55;92202.00;;;12.40
41593;BMP180;28026;48.562;14.440;2024-02-26T08:12:25;92200.00;;;12.50
41593;BMP180;28026;48.562;14.440;2024-02-26T08:14:56;92200.00;;;12.70
41593;BMP180;28026;48.562;14.440;2024-02-26T08:17:28;92199.00;;;12.80
41593;BMP180;28026;48.562;14.440;2024-02-26T08:20:00;92213.00;;;13.00
41593;BMP180;28026;48.562;14.440;2024-02-26T08:22:30;92195.00;;;13.20
41593;BMP180;28026;48.562;14.440;2024-02-26T08:25:02;92203.00;;;13.30
41593;BMP180;28026;48.562;14.440;2024-02-26T08:27:37;92205.00;;;13.50
41593;BMP180;28026;48.562;14.440;2024-02-26T08:30:08;92204.00;;;13.60
41593;BMP180;28026;48.562;14.440;2024-02-26T08:32:39;92202.00;;;13.80
41593;BMP180;28026;48.562;14.440;2024-02-26T08:35:10;92209.00;;;13.90
41593;BMP180;28026;48.562;14.440;2024-02-26T08:37:44;92213.00;;;13.90
41593;BMP180;28026;48.562;14.440;2024-02-26T08:40:16;92214.00;;;14.00
41593;BMP180;28026;48.562;14.440;2024-02-26T08:42:47;92218.00;;;14.00
41593;BMP180;28026;48.562;14.440;2024-02-26T08:45:18;92208.00;;;14.00
41593;BMP180;28026;48.562;14.440;2024-02-26T08:47:49;92214.00;;;14.10
41593;BMP180;28026;48.562;14.440;2024-02-26T08:50:20;92224.00;;;14.20
41593;BMP180;28026;48.562;14.440;2024-02-26T08:52:50;92225.00;;;14.40
41593;BMP180;28026;48.562;14.440;2024-02-26T08:55:23;92223.00;;;14.60
41593;BMP180;28026;48.562;14.440;2024-02-26T08:57:54;92227.00;;;14.80
41593;BMP180;28026;48.562;14.440;2024-02-26T09:00:25;92223.00;;;14.90
41593;BMP180;28026;48.562;14.440;2024-02-26T09:02:56;92228.00;;;14.90
41593;BMP180;28026;48.562;14.440;2024-02-26T09:05:27;92232.00;;;14.90
41593;BMP180;28026;48.562;14.440;2024-02-26T09:07:58;92231.00;;;15.00
41593;BMP180;28026;48.562;14.440;2024-02-26T09:10:28;92237.00;;;15.20
41593;BMP180;28026;48.562;14.440;2024-02-26T09:12:59;92229.00;;;15.40
41593;BMP180;28026;48.562;14.440;2024-02-26T09:15:30;92223.00;;;15.50
41593;BMP180;28026;48.562;14.440;2024-02-26T09:18:01;92234.00;;;15.70
41593;BMP180;28026;48.562;14.440;2024-02-26T09:20:33;92235.00;;;16.00
41593;BMP180;28026;48.562;14.440;2024-02-26T09:23:04;92241.00;;;16.20
41593;BMP180;28026;48.562;14.440;2024-02-26T09:25:35;92233.00;;;16.40
41593;BMP180;28026;48.562;14.440;2024-02-26T09:28:05;92243.00;;;16.50
41593;BMP180;28026;48.562;14.440;2024-02-26T09:30:36;92234.00;;;16.50
41593;BMP180;28026;48.562;14.440;2024-02-26T09:33:08;92254.00;;;16.50
41593;BMP180;28026;48.562;14.440;2024-02-26T09:35:39;92252.00;;;16.50
41593;BMP180;28026;48.562;14.440;2024-02-26T09:38:10;92259.00;;;16.70
41593;BMP180;28026;48.562;14.440;2024-02-26T09:40:41;92255.00;;;16.80
41593;BMP180;28026;48.562;14.440;2024-02-26T09:43:14;92259.00;;;17.00
41593;BMP180;28026;48.562;14.440;2024-02-26T09:45:50;92253.00;;;17.20
41593;BMP180;28026;48.562;14.440;2024-02-26T09:48:22;92262.00;;;17.30
41593;BMP180;28026;48.562;14.440;2024-02-26T09:50:54;92262.00;;;17.50
41593;BMP180;28026;48.562;14.440;2024-02-26T09:53:25;92262.00;;;17.50
41593;BMP180;28026;48.562;14.440;2024-02-26T09:55:55;92257.00;;;17.40
41593;BMP180;28026;48.562;14.440;2024-02-26T09:58:28;92261.00;;;17.50
41593;BMP180;28026;48.562;14.440;2024-02-26T10:01:02;92254.00;;;17.60
41593;BMP180;28026;48.562;14.440;2024-02-26T10:03:38;92264.00;;;17.70
41593;BMP180;28026;48.562;14.440;2024-02-26T10:06:11;92255.00;;;17.80
41593;BMP180;28026;48.562;14.440;2024-02-26T10:08:43;92261.00;;;18.00
41593;BMP180;28026;48.562;14.440;2024-02-26T10:11:14;92260.00;;;18.10
41593;BMP180;28026;48.562;14.440;2024-02-26T10:13:46;92263.00;;;18.10
41593;BMP180;28026;48.562;14.440;2024-02-26T10:16:17;92267.00;;;18.10
41593;BMP180;28026;48.562;14.440;2024-02-26T10:18:49;92270.00;;;18.10
41593;BMP180;28026;48.562;14.440;2024-02-26T10:21:21;92265.00;;;18.00
41593;BMP180;28026;48.562;14.440;2024-02-26T10:23:53;92276.00;;;18.00
41593;BMP180;28026;48.562;14.440;2024-02-26T10:26:24;92277.00;;;18.10
41593;BMP180;28026;48.562;14.440;2024-02-26T10:28:59;92271.00;;;18.00
41593;BMP180;28026;48.562;14.440;2024-02-26T10:31:31;92269.00;;;18.00
41593;BMP180;28026;48.562;14.440;2024-02-26T10:34:02;92276.00;;;18.00
41593;BMP180;28026;48.562;14.440;2024-02-26T10:36:34;92273.00;;;17.90
41593;BMP180;28026;48.562;14.440;2024-02-26T10:39:05;92283.00;;;18.00
41593;BMP180;28026;48.562;14.440;2024-02-26T10:41:36;92286.00;;;18.20
41593;BMP180;28026;48.562;14.440;2024-02-26T10:44:10;92279.00;;;18.50
41593;BMP180;28026;48.562;14.440;2024-02-26T10:46:42;92278.00;;;18.70
41593;BMP180;28026;48.562;14.440;2024-02-26T10:49:14;92283.00;;;18.80
41593;BMP180;28026;48.562;14.440;2024-02-26T10:51:55;92285.00;;;18.70
41593;BMP180;28026;48.562;14.440;2024-02-26T10:54:29;92283.00;;;18.60
41593;BMP180;28026;48.562;14.440;2024-02-26T10:57:01;92276.00;;;18.50
41593;BMP180;28026;48.562;14.440;2024-02-26T10:59:35;92278.00;;;18.40
41593;BMP180;28026;48.562;14.440;2024-02-26T11:02:10;92283.00;;;18.40
41593;BMP180;28026;48.562;14.440;2024-02-26T11:04:42;92269.00;;;18.40
41593;BMP180;28026;48.562;14.440;2024-02-26T11:07:14;92270.00;;;18.40
41593;BMP180;28026;48.562;14.440;2024-02-26T11:09:46;92271.00;;;18.40
41593;BMP180;28026;48.562;14.440;2024-02-26T11:12:22;92275.00;;;18.50
41593;BMP180;28026;48.562;14.440;2024-02-26T11:14:55;92274.00;;;18.50
41593;BMP180;28026;48.562;14.440;2024-02-26T11:17:28;92270.00;;;18.50
41593;BMP180;28026;48.562;14.440;2024-02-26T11:20:02;92264.00;;;18.50
41593;BMP180;28026;48.562;14.440;2024-02-26T11:22:33;92263.00;;;18.50
41593;BMP180;28026;48.562;14.440;2024-02-26T11:25:04;92269.00;;;18.60
41593;BMP180;28026;48.562;14.440;2024-02-26T11:27:43;92269.00;;;18.60
41593;BMP180;28026;48.562;14.440;2024-02-26T11:30:30;92270.00;;;18.70
41593;BMP180;28026;48.562;14.440;2024-02-26T11:33:07;92266.00;;;18.70
41593;BMP180;28026;48.562;14.440;2024-02-26T11:35:39;92263.00;;;18.80
41593;BMP180;28026;48.562;14.440;2024-02-26T11:38:19;92267.00;;;18.70
41593;BMP180;28026;48.562;14.440;2024-02-26T11:40:53;92268.00;;;18.70
41593;BMP180;28026;48.562;14.440;2024-02-26T11:43:53;92265.00;;;18.70
41593;BMP180;28026;48.562;14.440;2024-02-26T11:46:40;92262.00;;;18.50
41593;BMP180;28026;48.562;14.440;2024-02-26T11:51:59;92252.00;;;18.40
41593;BMP180;28026;48.562;14.440;2024-02-26T11:57:25;92264.00;;;18.10
41593;BMP180;28026;48.562;14.440;2024-02-26T12:00:13;92266.00;;;17.90
41593;BMP180;28026;48.562;14.440;2024-02-26T12:02:46;92265.00;;;17.80
41593;BMP180;28026;48.562;14.440;2024-02-26T12:05:21;92272.00;;;17.80
41593;BMP180;28026;48.562;14.440;2024-02-26T12:07:55;92283.00;;;17.70
41593;BMP180;28026;48.562;14.440;2024-02-26T12:10:31;92281.00;;;17.60
41593;BMP180;28026;48.562;14.440;2024-02-26T12:13:15;92287.00;;;17.50
41593;BMP180;28026;48.562;14.440;2024-02-26T12:18:24;92280.00;;;17.30
41593;BMP180;28026;48.562;14.440;2024-02-26T12:21:03;92275.00;;;17.30
41593;BMP180;28026;48.562;14.440;2024-02-26T12:23:34;92277.00;;;17.20
41593;BMP180;28026;48.562;14.440;2024-02-26T12:26:05;92287.00;;;17.20
41593;BMP180;28026;48.562;14.440;2024-02-26T12:28:36;92287.00;;;17.20
41593;BMP180;28026;48.562;14.440;2024-02-26T12:31:07;92289.00;;;17.10
41593;BMP180;28026;48.562;14.440;2024-02-26T12:33:37;92288.00;;;17.10
41593;BMP180;28026;48.562;14.440;2024-02-26T12:36:09;92288.00;;;17.00
41593;BMP180;28026;48.562;14.440;2024-02-26T12:38:40;92291.00;;;16.90
41593;BMP180;28026;48.562;14.440;2024-02-26T12:41:11;92291.00;;;16.80
41593;BMP180;28026;48.562;14.440;2024-02-26T12:43:42;92284.00;;;16.70
41593;BMP180;28026;48.562;14.440;2024-02-26T12:46:13;92292.00;;;16.50
41593;BMP180;28026;48.562;14.440;2024-02-26T12:48:46;92290.00;;;16.50
41593;BMP180;28026;48.562;14.440;2024-02-26T12:51:17;92292.00;;;16.40
41593;BMP180;28026;48.562;14.440;2024-02-26T12:53:49;92290.00;;;16.30
41593;BMP180;28026;48.562;14.440;2024-02-26T12:56:22;92300.00;;;16.10
41593;BMP180;28026;48.562;14.440;2024-02-26T12:58:54;92309.00;;;16.00
41593;BMP180;28026;48.562;14.440;2024-02-26T13:01:26;92294.00;;;16.00
41593;BMP180;28026;48.562;14.440;2024-02-26T13:03:57;92308.00;;;15.90
41593;BMP180;28026;48.562;14.440;2024-02-26T13:06:31;92304.00;;;15.80
41593;BMP180;28026;48.562;14.440;2024-02-26T13:09:02;92305.00;;;15.70
41593;BMP180;28026;48.562;14.440;2024-02-26T13:11:33;92309.00;;;15.60
41593;BMP180;28026;48.562;14.440;2024-02-26T13:14:04;92307.00;;;15.40
41593;BMP180;28026;48.562;14.440;2024-02-26T13:16:36;92301.00;;;15.30
41593;BMP180;28026;48.562;14.440;2024-02-26T13:19:11;92308.00;;;15.20
41593;BMP180;28026;48.562;14.440;2024-02-26T13:21:42;92299.00;;;15.20
41593;BMP180;28026;48.562;14.440;2024-02-26T13:24:13;92303.00;;;15.00
41593;BMP180;28026;48.562;14.440;2024-02-26T13:26:44;92305.00;;;14.90
41593;BMP180;28026;48.562;14.440;2024-02-26T13:29:18;92319.00;;;14.80
41593;BMP180;28026;48.562;14.440;2024-02-26T13:31:54;92314.00;;;14.80
41593;BMP180;28026;48.562;14.440;2024-02-26T13:34:27;92319.00;;;14.70
41593;BMP180;28026;48.562;14.440;2024-02-26T13:37:00;92325.00;;;14.70
41593;BMP180;28026;48.562;14.440;2024-02-26T13:39:31;92319.00;;;14.70
41593;BMP180;28026;48.562;14.440;2024-02-26T13:42:02;92310.00;;;14.60
41593;BMP180;28026;48.562;14.440;2024-02-26T13:44:33;92313.00;;;14.60
41593;BMP180;28026;48.562;14.440;2024-02-26T13:47:07;92309.00;;;14.50
41593;BMP180;28026;48.562;14.440;2024-02-26T13:49:37;92313.00;;;14.40
41593;BMP180;28026;48.562;14.440;2024-02-26T13:52:08;92321.00;;;14.40
41593;BMP180;28026;48.562;14.440;2024-02-26T13:54:39;92328.00;;;14.30
41593;BMP180;28026;48.562;14.440;2024-02-26T13:57:11;92316.00;;;14.20
41593;BMP180;28026;48.562;14.440;2024-02-26T13:59:41;92314.00;;;14.20
41593;BMP180;28026;48.562;14.440;2024-02-26T14:02:13;92320.00;;;14.10
41593;BMP180;28026;48.562;14.440;2024-02-26T14:04:43;92307.00;;;14.10
41593;BMP180;28026;48.562;14.440;2024-02-26T14:07:15;92310.00;;;14.10
41593;BMP180;28026;48.562;14.440;2024-02-26T14:09:47;92317.00;;;14.00
41593;BMP180;28026;48.562;14.440;2024-02-26T14:12:18;92319.00;;;13.90
41593;BMP180;28026;48.562;14.440;2024-02-26T14:14:49;92325.00;;;13.90
41593;BMP180;28026;48.562;14.440;2024-02-26T14:17:20;92322.00;;;13.90
41593;BMP180;28026;48.562;14.440;2024-02-26T14:19:50;92327.00;;;13.90
41593;BMP180;28026;48.562;14.440;2024-02-26T14:22:21;92335.00;;;13.90
41593;BMP180;28026;48.562;14.440;2024-02-26T14:24:53;92342.00;;;14.10
41593;BMP180;28026;48.562;14.440;2024-02-26T14:27:23;92348.00;;;14.20
41593;BMP180;28026;48.562;14.440;2024-02-26T14:29:54;92343.00;;;14.30
41593;BMP180;28026;48.562;14.440;2024-02-26T14:32:25;92344.00;;;14.50
41593;BMP180;28026;48.562;14.440;2024-02-26T14:34:56;92350.00;;;14.70